createdAt,value
2019-03-24T00:00:17.152Z,102704.72
2019-03-24T00:03:43.002Z,102705.66
2019-03-24T00:07:07.352Z,102700.09
2019-03-24T00:10:31.335Z,102703.97
2019-03-24T00:13:55.529Z,102704.42
2019-03-24T00:17:20.208Z,102700.45
2019-03-24T00:20:44.259Z,102701.63
2019-03-24T00:24:08.246Z,102695.97
2019-03-24T00:27:32.308Z,102691.82
2019-03-24T00:30:56.449Z,102682.65
2019-03-24T00:34:20.569Z,102682.38
2019-03-24T00:37:44.891Z,102682.21
2019-03-24T00:41:08.951Z,102679.15
2019-03-24T00:44:33.014Z,102679.28
2019-03-24T00:47:58.352Z,102676.92
2019-03-24T00:51:22.512Z,102680.91
2019-03-24T00:54:46.458Z,102670.94
2019-03-24T00:58:11.156Z,102670.36
2019-03-24T01:01:35.074Z,102671.87
2019-03-24T01:04:59.443Z,102663.49
2019-03-24T01:08:23.374Z,102667.66
2019-03-24T01:11:47.704Z,102667.23
2019-03-24T01:15:11.902Z,102663.38
2019-03-24T01:18:36.030Z,102662.34
2019-03-24T01:21:59.992Z,102662.30
2019-03-24T01:25:23.982Z,102663.09
2019-03-24T01:28:47.907Z,102666.67
2019-03-24T01:32:11.944Z,102663.36
2019-03-24T01:35:36.072Z,102665.59
2019-03-24T01:39:00.044Z,102658.70
2019-03-24T01:42:24.163Z,102648.11
2019-03-24T01:45:57.937Z,102649.88
2019-03-24T01:49:14.063Z,102648.41
2019-03-24T01:52:38.074Z,102651.55
2019-03-24T01:56:02.473Z,102652.59
2019-03-24T01:59:26.861Z,102652.65
2019-03-24T02:02:50.796Z,102650.80
2019-03-24T02:06:14.786Z,102654.73
2019-03-24T02:09:38.761Z,102654.41
2019-03-24T02:13:03.101Z,102648.66
2019-03-24T02:16:28.113Z,102646.48
2019-03-24T02:19:52.042Z,102641.00
2019-03-24T02:23:16.275Z,102636.05
2019-03-24T02:26:40.380Z,102637.38
2019-03-24T02:30:05.363Z,102631.98
2019-03-24T02:33:29.981Z,102635.17
2019-03-24T02:36:53.980Z,102633.76
2019-03-24T02:40:17.935Z,102629.98
2019-03-24T02:43:41.836Z,102630.08
2019-03-24T02:47:05.780Z,102621.48
2019-03-24T02:50:29.887Z,102615.61
2019-03-24T02:53:54.066Z,102609.81
2019-03-24T02:57:17.995Z,102613.38
2019-03-24T03:00:42.998Z,102617.80
2019-03-24T03:04:06.948Z,102614.38
2019-03-24T03:07:30.881Z,102614.91
2019-03-24T03:10:54.764Z,102612.47
2019-03-24T03:14:18.817Z,102614.02
2019-03-24T03:17:42.903Z,102607.50
2019-03-24T03:21:06.931Z,102605.91
2019-03-24T03:24:30.858Z,102599.15
2019-03-24T03:27:54.728Z,102599.94
2019-03-24T03:31:18.754Z,102596.39
2019-03-24T03:34:42.662Z,102602.05
2019-03-24T03:38:06.668Z,102599.20
2019-03-24T03:41:30.655Z,102597.54
2019-03-24T03:44:54.823Z,102595.98
2019-03-24T03:48:18.876Z,102593.97
2019-03-24T03:51:42.891Z,102595.42
2019-03-24T03:55:07.077Z,102588.87
2019-03-24T03:58:31.124Z,102593.94
2019-03-24T04:01:55.501Z,102589.95
2019-03-24T04:05:19.430Z,102588.17
2019-03-24T04:08:43.419Z,102590.56
2019-03-24T04:12:07.332Z,102582.53
2019-03-24T04:15:31.232Z,102578.09
2019-03-24T04:18:55.409Z,102578.97
2019-03-24T04:22:19.843Z,102582.45
2019-03-24T04:25:43.776Z,102575.50
2019-03-24T04:29:07.895Z,102570.62
2019-03-24T04:32:31.927Z,102566.78
2019-03-24T04:35:57.059Z,102563.95
2019-03-24T04:39:21.195Z,102557.57
2019-03-24T04:42:45.135Z,102549.05
2019-03-24T04:46:09.115Z,102556.02
2019-03-24T04:49:33.088Z,102556.77
2019-03-24T04:52:57.016Z,102560.28
2019-03-24T04:56:21.298Z,102560.60
2019-03-24T04:59:45.336Z,102557.66
2019-03-24T05:03:09.427Z,102566.91
2019-03-24T05:06:33.632Z,102567.20
2019-03-24T05:09:57.607Z,102563.03
2019-03-24T05:13:21.504Z,102559.29
2019-03-24T05:16:45.705Z,102554.39
2019-03-24T05:20:09.925Z,102552.52
2019-03-24T05:23:33.986Z,102550.83
2019-03-24T05:27:00.135Z,102559.31
2019-03-24T05:30:24.051Z,102562.25
2019-03-24T05:33:47.982Z,102563.43
2019-03-24T05:37:11.858Z,102561.45
2019-03-24T05:40:35.813Z,102563.78
2019-03-24T05:43:59.764Z,102564.05
2019-03-24T05:47:23.708Z,102571.09
2019-03-24T05:50:47.863Z,102569.33
2019-03-24T05:54:12.895Z,102566.51
2019-03-24T05:57:37.361Z,102568.28
2019-03-24T06:01:01.440Z,102568.17
2019-03-24T06:04:25.764Z,102571.78
2019-03-24T06:07:49.905Z,102573.23
2019-03-24T06:11:13.949Z,102565.75
2019-03-24T06:14:37.918Z,102567.09
2019-03-24T06:18:01.886Z,102566.26
2019-03-24T06:21:27.264Z,102563.05
2019-03-24T06:24:51.847Z,102557.61
2019-03-24T06:28:18.119Z,102555.09
2019-03-24T06:31:42.421Z,102550.45
2019-03-24T06:35:06.812Z,102556.80
2019-03-24T06:38:30.854Z,102552.67
2019-03-24T06:41:55.065Z,102554.68
2019-03-24T06:45:28.033Z,102554.58
2019-03-24T06:48:45.072Z,102543.10
2019-03-24T06:52:09.188Z,102537.94
2019-03-24T06:55:33.786Z,102538.52
2019-03-24T06:58:57.715Z,102538.13
2019-03-24T07:02:21.591Z,102534.39
2019-03-24T07:05:45.599Z,102530.61
2019-03-24T07:09:09.502Z,102528.78
2019-03-24T07:12:33.613Z,102527.75
2019-03-24T07:15:57.880Z,102520.12
2019-03-24T07:19:22.347Z,102517.34
2019-03-24T07:22:46.977Z,102518.33
2019-03-24T07:26:11.206Z,102516.56
2019-03-24T07:29:35.395Z,102518.62
2019-03-24T07:32:59.816Z,102507.87
2019-03-24T07:36:23.762Z,102503.71
2019-03-24T07:39:47.689Z,102499.42
2019-03-24T07:43:11.539Z,102493.23
2019-03-24T07:46:35.539Z,102488.27
2019-03-24T07:49:59.575Z,102482.39
2019-03-24T07:53:23.608Z,102482.90
2019-03-24T07:56:47.946Z,102477.44
2019-03-24T08:00:12.591Z,102480.55
2019-03-24T08:03:38.727Z,102483.22
2019-03-24T08:07:02.961Z,102481.75
2019-03-24T08:10:26.869Z,102492.31
2019-03-24T08:13:54.054Z,102488.48
2019-03-24T08:17:17.207Z,102493.58
2019-03-24T08:20:41.173Z,102491.95
2019-03-24T08:24:05.103Z,102498.21
2019-03-24T08:27:29.012Z,102505.30
2019-03-24T08:30:52.966Z,102510.45
2019-03-24T08:34:16.904Z,102507.41
2019-03-24T08:37:40.794Z,102519.60
2019-03-24T08:41:04.682Z,102517.86
2019-03-24T08:44:28.571Z,102519.11
2019-03-24T08:47:53.672Z,102511.89
2019-03-24T08:51:17.571Z,102507.92
2019-03-24T08:54:42.001Z,102511.98
2019-03-24T08:58:06.162Z,102501.62
2019-03-24T09:01:31.521Z,102507.41
2019-03-24T09:04:55.489Z,102509.55
2019-03-24T09:08:19.935Z,102508.23
2019-03-24T09:11:43.964Z,102511.59
2019-03-24T09:15:08.220Z,102514.11
2019-03-24T09:18:32.174Z,102512.10
2019-03-24T09:21:56.754Z,102516.08
2019-03-24T09:25:22.539Z,102505.61
2019-03-24T09:28:46.664Z,102507.42
2019-03-24T09:32:10.733Z,102514.59
2019-03-24T09:35:35.227Z,102506.06
2019-03-24T09:38:59.495Z,102511.11
2019-03-24T09:42:24.003Z,102497.98
2019-03-24T09:45:47.894Z,102503.89
2019-03-24T09:49:12.218Z,102506.66
2019-03-24T09:52:36.101Z,102502.39
2019-03-24T09:56:00.013Z,102508.80
2019-03-24T09:59:23.942Z,102509.36
2019-03-24T10:02:47.856Z,102505.66
2019-03-24T10:06:11.783Z,102512.06
2019-03-24T10:09:35.709Z,102515.39
2019-03-24T10:12:59.689Z,102513.30
2019-03-24T10:16:23.615Z,102511.53
2019-03-24T10:19:47.523Z,102503.88
2019-03-24T10:23:11.473Z,102502.13
2019-03-24T10:26:38.695Z,102492.81
2019-03-24T10:30:02.767Z,102495.59
2019-03-24T10:33:27.363Z,102484.53
2019-03-24T10:36:51.315Z,102480.84
2019-03-24T10:40:15.380Z,102471.39
2019-03-24T10:43:39.380Z,102458.81
2019-03-24T10:47:03.311Z,102455.72
2019-03-24T10:50:33.289Z,102463.44
2019-03-24T10:53:57.972Z,102457.98
2019-03-24T10:57:21.954Z,102445.92
2019-03-24T11:00:47.158Z,102444.81
2019-03-24T11:04:11.497Z,102439.98
2019-03-24T11:07:35.574Z,102442.81
2019-03-24T11:11:00.945Z,102437.84
2019-03-24T11:14:24.929Z,102441.47
2019-03-24T11:17:49.644Z,102439.61
2019-03-24T11:21:18.551Z,102440.72
2019-03-24T11:24:42.691Z,102443.91
2019-03-24T11:28:06.747Z,102444.11
2019-03-24T11:31:30.710Z,102433.20
2019-03-24T11:34:54.608Z,102435.06
2019-03-24T11:38:18.735Z,102432.05
2019-03-24T11:41:42.874Z,102436.28
2019-03-24T11:45:08.154Z,102440.73
2019-03-24T11:48:32.058Z,102434.16
2019-03-24T11:51:55.936Z,102428.48
2019-03-24T11:55:20.005Z,102428.34
2019-03-24T11:58:44.178Z,102417.58
2019-03-24T12:02:08.108Z,102419.67
2019-03-24T12:05:32.106Z,102423.55
2019-03-24T12:08:56.037Z,102412.29
2019-03-24T12:12:19.905Z,102414.15
2019-03-24T12:15:43.842Z,102409.52
2019-03-24T12:19:07.744Z,102411.95
2019-03-24T12:22:31.712Z,102406.92
2019-03-24T12:25:55.646Z,102406.16
2019-03-24T12:29:19.578Z,102402.42
2019-03-24T12:32:43.529Z,102398.97
2019-03-24T12:36:07.418Z,102405.24
2019-03-24T12:39:31.291Z,102404.13
2019-03-24T12:42:55.385Z,102411.60
2019-03-24T12:46:19.910Z,102402.19
2019-03-24T12:49:43.823Z,102408.86
2019-03-24T12:53:07.702Z,102404.35
2019-03-24T12:56:31.723Z,102409.09
2019-03-24T12:59:56.111Z,102399.28
2019-03-24T13:03:20.173Z,102406.31
2019-03-24T13:06:44.237Z,102398.12
2019-03-24T13:10:10.756Z,102398.98
2019-03-24T13:13:35.168Z,102392.53
2019-03-24T13:16:59.115Z,102382.97
2019-03-24T13:20:36.519Z,102389.68
2019-03-24T13:23:49.073Z,102384.45
2019-03-24T13:27:13.038Z,102389.59
2019-03-24T13:30:37.038Z,102385.55
2019-03-24T13:34:00.987Z,102385.17
2019-03-24T13:37:25.337Z,102381.05
2019-03-24T13:40:49.242Z,102375.98
2019-03-24T13:44:13.603Z,102369.03
2019-03-24T13:47:37.635Z,102361.91
2019-03-24T13:51:01.923Z,102364.38
2019-03-24T13:54:25.919Z,102349.91
2019-03-24T13:57:49.816Z,102343.16
2019-03-24T14:01:14.314Z,102340.12
2019-03-24T14:04:38.220Z,102345.47
2019-03-24T14:08:02.223Z,102341.37
2019-03-24T14:11:26.364Z,102342.23
2019-03-24T14:14:50.307Z,102335.19
2019-03-24T14:18:14.917Z,102334.65
2019-03-24T14:21:38.912Z,102332.92
2019-03-24T14:25:03.576Z,102322.42
2019-03-24T14:28:27.746Z,102318.55
2019-03-24T14:31:51.722Z,102317.73
2019-03-24T14:35:15.703Z,102314.80
2019-03-24T14:38:40.104Z,102313.77
2019-03-24T14:42:04.440Z,102307.41
2019-03-24T14:45:28.386Z,102306.28
2019-03-24T14:48:52.409Z,102297.91
2019-03-24T14:52:16.463Z,102299.62
2019-03-24T14:55:40.337Z,102293.02
2019-03-24T14:59:04.207Z,102288.16
2019-03-24T15:02:28.191Z,102290.88
2019-03-24T15:05:52.104Z,102281.50
2019-03-24T15:09:16.060Z,102281.32
2019-03-24T15:12:40.238Z,102281.23
2019-03-24T15:16:04.153Z,102278.72
2019-03-24T15:19:28.159Z,102279.28
2019-03-24T15:22:52.057Z,102276.15
2019-03-24T15:26:15.984Z,102270.39
2019-03-24T15:29:40.307Z,102262.50
2019-03-24T15:33:04.392Z,102266.08
2019-03-24T15:36:28.475Z,102266.07
2019-03-24T15:39:52.400Z,102257.93
2019-03-24T15:43:16.574Z,102259.44
2019-03-24T15:46:40.945Z,102259.25
2019-03-24T15:50:07.827Z,102249.44
2019-03-24T15:53:31.759Z,102246.86
2019-03-24T15:56:55.652Z,102244.95
2019-03-24T16:00:41.670Z,102253.57
2019-03-24T16:04:05.608Z,102248.85
2019-03-24T16:07:29.525Z,102240.02
2019-03-24T16:10:53.446Z,102245.22
2019-03-24T16:14:20.332Z,102238.34
2019-03-24T16:17:44.433Z,102231.17
2019-03-24T16:21:08.579Z,102230.89
2019-03-24T16:24:33.047Z,102218.15
2019-03-24T16:27:57.085Z,102221.02
2019-03-24T16:31:21.431Z,102221.36
2019-03-24T16:34:45.479Z,102218.98
2019-03-24T16:38:09.482Z,102214.21
2019-03-24T16:41:33.479Z,102205.84
2019-03-24T16:44:57.557Z,102204.95
2019-03-24T16:48:21.630Z,102204.58
2019-03-24T16:51:45.612Z,102208.58
2019-03-24T16:55:13.313Z,102200.95
2019-03-24T16:58:37.485Z,102198.04
2019-03-24T17:02:02.105Z,102189.33
2019-03-24T17:05:27.370Z,102190.03
2019-03-24T17:08:51.285Z,102202.52
2019-03-24T17:12:15.253Z,102198.57
2019-03-24T17:15:40.232Z,102190.34
2019-03-24T17:19:04.467Z,102186.73
2019-03-24T17:22:30.230Z,102195.36
2019-03-24T17:25:54.230Z,102200.60
2019-03-24T17:29:18.416Z,102196.91
2019-03-24T17:32:42.486Z,102202.94
2019-03-24T17:36:06.416Z,102202.87
2019-03-24T17:39:30.509Z,102205.69
2019-03-24T17:42:55.021Z,102207.61
2019-03-24T17:46:19.581Z,102197.92
2019-03-24T17:49:43.846Z,102201.80
2019-03-24T17:53:08.041Z,102202.58
2019-03-24T17:56:32.106Z,102203.97
2019-03-24T17:59:56.620Z,102215.78
2019-03-24T18:03:20.778Z,102219.03
2019-03-24T18:06:44.856Z,102213.01
2019-03-24T18:10:10.093Z,102216.98
2019-03-24T18:13:34.218Z,102213.25
2019-03-24T18:16:58.271Z,102215.94
2019-03-24T18:20:40.253Z,102224.48
2019-03-24T18:24:04.730Z,102227.28
2019-03-24T18:27:28.795Z,102222.83
2019-03-24T18:30:52.821Z,102226.12
2019-03-24T18:34:19.872Z,102226.77
2019-03-24T18:37:43.953Z,102234.71
2019-03-24T18:41:07.946Z,102238.69
2019-03-24T18:44:35.072Z,102243.55
2019-03-24T18:47:59.624Z,102248.55
2019-03-24T18:51:23.709Z,102243.22
2019-03-24T18:54:47.644Z,102243.87
2019-03-24T18:58:12.482Z,102244.03
2019-03-24T19:01:37.038Z,102235.49
2019-03-24T19:05:04.744Z,102236.05
2019-03-24T19:08:28.721Z,102232.77
2019-03-24T19:11:52.797Z,102231.02
2019-03-24T19:15:17.206Z,102235.27
2019-03-24T19:18:41.469Z,102241.59
2019-03-24T19:22:06.638Z,102229.78
2019-03-24T19:25:30.969Z,102238.22
2019-03-24T19:28:56.740Z,102231.88
2019-03-24T19:32:22.033Z,102229.25
2019-03-24T19:35:46.053Z,102232.92
2019-03-24T19:39:10.610Z,102226.17
2019-03-24T19:42:35.163Z,102228.55
2019-03-24T19:45:59.754Z,102226.49
2019-03-24T19:49:23.983Z,102232.95
2019-03-24T19:52:48.048Z,102234.81
2019-03-24T19:56:12.330Z,102231.32
2019-03-24T19:59:36.684Z,102236.13
2019-03-24T20:03:01.668Z,102232.50
2019-03-24T20:06:25.856Z,102235.48
2019-03-24T20:09:50.598Z,102235.52
2019-03-24T20:13:14.801Z,102230.63
2019-03-24T20:16:39.815Z,102232.59
2019-03-24T20:20:06.389Z,102245.29
2019-03-24T20:23:30.755Z,102237.44
2019-03-24T20:26:55.250Z,102239.52
2019-03-24T20:30:20.709Z,102242.14
2019-03-24T20:33:46.169Z,102243.09
2019-03-24T20:37:10.215Z,102230.73
2019-03-24T20:40:34.317Z,102230.30
2019-03-24T20:44:01.379Z,102231.41
2019-03-24T20:47:25.490Z,102226.10
2019-03-24T20:50:50.213Z,102224.61
2019-03-24T20:54:14.296Z,102227.08
2019-03-24T20:57:38.475Z,102227.77
2019-03-24T21:01:03.042Z,102220.29
2019-03-24T21:04:27.083Z,102223.98
2019-03-24T21:07:51.488Z,102221.02
2019-03-24T21:11:15.732Z,102216.73
2019-03-24T21:14:39.695Z,102213.77
2019-03-24T21:18:03.730Z,102217.57
2019-03-24T21:21:27.710Z,102212.75
2019-03-24T21:24:51.664Z,102202.70
2019-03-24T21:28:15.764Z,102200.95
2019-03-24T21:31:39.845Z,102194.75
2019-03-24T21:35:04.608Z,102192.06
2019-03-24T21:38:28.617Z,102190.25
2019-03-24T21:41:52.639Z,102190.65
2019-03-24T21:45:16.557Z,102186.11
2019-03-24T21:48:40.588Z,102180.44
2019-03-24T21:52:04.538Z,102177.77
2019-03-24T21:55:29.989Z,102183.27
2019-03-24T21:58:53.927Z,102173.48
2019-03-24T22:02:17.924Z,102180.25
2019-03-24T22:05:41.834Z,102184.56
2019-03-24T22:09:07.841Z,102167.19
2019-03-24T22:12:31.875Z,102172.45
2019-03-24T22:15:55.871Z,102170.40
2019-03-24T22:19:19.743Z,102165.37
2019-03-24T22:22:43.654Z,102169.12
2019-03-24T22:26:07.644Z,102156.14
2019-03-24T22:29:31.558Z,102156.33
2019-03-24T22:32:55.503Z,102147.31
2019-03-24T22:36:19.382Z,102150.80
2019-03-24T22:39:43.316Z,102138.20
2019-03-24T22:43:07.445Z,102132.29
2019-03-24T22:46:31.312Z,102128.66
2019-03-24T22:49:55.627Z,102120.51
2019-03-24T22:53:19.518Z,102109.72
2019-03-24T22:56:43.410Z,102102.80
2019-03-24T23:00:15.480Z,102095.03
2019-03-24T23:03:41.308Z,102091.67
2019-03-24T23:07:05.288Z,102098.19
2019-03-24T23:10:29.288Z,102090.83
2019-03-24T23:13:53.240Z,102088.06
2019-03-24T23:17:17.160Z,102091.41
2019-03-24T23:20:41.105Z,102075.89
2019-03-24T23:24:14.940Z,102071.63
2019-03-24T23:27:31.109Z,102063.67
2019-03-24T23:30:55.534Z,102054.75
2019-03-24T23:34:19.539Z,102053.33
2019-03-24T23:37:43.583Z,102053.13
2019-03-24T23:41:07.631Z,102041.80
2019-03-24T23:44:32.029Z,102030.65
2019-03-24T23:47:55.974Z,102025.26
2019-03-24T23:51:21.174Z,102018.88
2019-03-24T23:54:45.107Z,102007.86
2019-03-24T23:58:09.008Z,101995.27
